createdAt,value
2017-09-22T00:00:29.766Z,99384.45
2017-09-22T00:02:59.040Z,99382.36
2017-09-22T00:05:30.108Z,99383.91
2017-09-22T00:08:00.091Z,99381.03
2017-09-22T00:10:30.050Z,99378.50
2017-09-22T00:12:59.718Z,99376.59
2017-09-22T00:15:30.598Z,99381.55
2017-09-22T00:18:00.083Z,99379.20
2017-09-22T00:20:30.912Z,99379.95
2017-09-22T00:23:00.832Z,99381.16
2017-09-22T00:25:30.321Z,99380.02
2017-09-22T00:27:59.696Z,99380.44
2017-09-22T00:30:30.758Z,99374.04
2017-09-22T00:33:00.240Z,99374.38
2017-09-22T00:35:30.858Z,99371.12
2017-09-22T00:38:00.391Z,99370.42
2017-09-22T00:40:30.782Z,99372.00
2017-09-22T00:43:00.860Z,99364.69
2017-09-22T00:45:30.883Z,99369.07
2017-09-22T00:48:00.394Z,99366.95
2017-09-22T00:50:31.163Z,99363.03
2017-09-22T00:53:01.093Z,99363.97
2017-09-22T00:55:32.050Z,99357.02
2017-09-22T00:58:01.669Z,99353.73
2017-09-22T01:00:32.278Z,99355.81
2017-09-22T01:03:02.378Z,99357.62
2017-09-22T01:05:31.684Z,99359.02
2017-09-22T01:08:01.590Z,99362.64
2017-09-22T01:10:32.062Z,99359.64
2017-09-22T01:13:01.593Z,99362.42
2017-09-22T01:15:32.604Z,99359.83
2017-09-22T01:18:01.906Z,99358.91
2017-09-22T01:20:32.562Z,99355.97
2017-09-22T01:23:02.520Z,99357.11
2017-09-22T01:25:33.135Z,99361.16
2017-09-22T01:28:02.702Z,99361.56
2017-09-22T01:30:33.060Z,99364.70
2017-09-22T01:33:02.624Z,99364.22
2017-09-22T01:35:33.234Z,99365.12
2017-09-22T01:38:02.762Z,99354.46
2017-09-22T01:40:33.584Z,99361.65
2017-09-22T01:43:02.905Z,99359.27
2017-09-22T01:45:34.413Z,99352.23
2017-09-22T01:48:04.418Z,99354.27
2017-09-22T01:50:34.254Z,99352.36
2017-09-22T01:53:03.914Z,99352.11
2017-09-22T01:55:34.688Z,99350.48
2017-09-22T01:58:03.941Z,99349.58
2017-09-22T02:00:34.667Z,99351.81
2017-09-22T02:03:04.554Z,99355.84
2017-09-22T02:05:34.366Z,99348.33
2017-09-22T02:08:03.846Z,99352.45
2017-09-22T02:10:34.905Z,99350.48
2017-09-22T02:13:04.389Z,99355.67
2017-09-22T02:15:34.818Z,99359.22
2017-09-22T02:18:06.268Z,99353.61
2017-09-22T02:20:35.927Z,99357.42
2017-09-22T02:23:05.596Z,99351.84
2017-09-22T02:25:35.390Z,99351.41
2017-09-22T02:28:04.902Z,99359.47
2017-09-22T02:30:37.514Z,99350.09
2017-09-22T02:33:07.097Z,99354.91
2017-09-22T02:35:37.186Z,99348.36
2017-09-22T02:38:06.645Z,99356.69
2017-09-22T02:40:36.155Z,99357.70
2017-09-22T02:43:06.256Z,99365.19
2017-09-22T02:45:36.250Z,99360.53
2017-09-22T02:48:06.040Z,99366.56
2017-09-22T02:50:36.719Z,99364.33
2017-09-22T02:53:06.611Z,99363.18
2017-09-22T02:55:36.739Z,99366.14
2017-09-22T02:58:06.240Z,99364.33
2017-09-22T03:00:37.245Z,99362.53
2017-09-22T03:03:07.088Z,99363.70
2017-09-22T03:05:37.413Z,99360.05
2017-09-22T03:08:06.885Z,99350.67
2017-09-22T03:10:37.267Z,99358.44
2017-09-22T03:13:07.241Z,99363.34
2017-09-22T03:15:37.686Z,99361.37
2017-09-22T03:18:07.162Z,99357.50
2017-09-22T03:20:37.507Z,99361.53
2017-09-22T03:23:07.131Z,99362.16
2017-09-22T03:25:37.640Z,99355.87
2017-09-22T03:28:07.435Z,99356.71
2017-09-22T03:30:38.498Z,99356.17
2017-09-22T03:33:08.086Z,99353.64
2017-09-22T03:35:39.250Z,99353.44
2017-09-22T03:38:08.758Z,99352.80
2017-09-22T03:40:38.448Z,99344.31
2017-09-22T03:43:07.951Z,99349.47
2017-09-22T03:45:39.419Z,99348.03
2017-09-22T03:48:08.973Z,99339.55
2017-09-22T03:50:38.896Z,99336.16
2017-09-22T03:53:08.536Z,99337.91
2017-09-22T03:55:39.286Z,99341.34
2017-09-22T03:58:08.708Z,99339.63
2017-09-22T04:00:39.309Z,99337.78
2017-09-22T04:03:09.347Z,99339.42
2017-09-22T04:05:40.247Z,99327.47
2017-09-22T04:08:09.830Z,99337.00
2017-09-22T04:10:39.974Z,99324.23
2017-09-22T04:13:09.552Z,99326.94
2017-09-22T04:15:40.656Z,99323.50
2017-09-22T04:18:10.648Z,99337.59
2017-09-22T04:20:40.070Z,99332.31
2017-09-22T04:23:09.479Z,99336.88
2017-09-22T04:25:40.139Z,99339.64
2017-09-22T04:28:10.010Z,99336.03
2017-09-22T04:30:40.308Z,99339.80
2017-09-22T04:33:10.013Z,99330.45
2017-09-22T04:35:41.314Z,99334.77
2017-09-22T04:38:11.162Z,99334.69
2017-09-22T04:40:43.418Z,99336.41
2017-09-22T04:43:12.981Z,99334.28
2017-09-22T04:45:42.685Z,99333.17
2017-09-22T04:48:12.054Z,99335.71
2017-09-22T04:50:42.883Z,99339.01
2017-09-22T04:53:12.716Z,99336.55
2017-09-22T04:55:42.106Z,99340.20
2017-09-22T04:58:11.511Z,99338.59
2017-09-22T05:00:41.304Z,99338.57
2017-09-22T05:03:15.083Z,99342.77
2017-09-22T05:05:47.014Z,99341.67
2017-09-22T05:08:17.134Z,99340.67
2017-09-22T05:10:46.555Z,99338.77
2017-09-22T05:13:16.328Z,99329.68
2017-09-22T05:15:47.269Z,99331.05
2017-09-22T05:18:16.899Z,99323.88
2017-09-22T05:20:46.667Z,99318.64
2017-09-22T05:23:16.370Z,99323.15
2017-09-22T05:25:47.768Z,99319.36
2017-09-22T05:28:17.531Z,99320.80
2017-09-22T05:30:48.906Z,99317.56
2017-09-22T05:33:18.392Z,99326.84
2017-09-22T05:35:50.947Z,99320.03
2017-09-22T05:38:20.506Z,99323.95
2017-09-22T05:40:51.041Z,99328.83
2017-09-22T05:43:20.508Z,99332.26
2017-09-22T05:45:51.658Z,99330.75
2017-09-22T05:48:21.446Z,99337.31
2017-09-22T05:50:52.203Z,99334.52
2017-09-22T05:53:22.372Z,99339.72
2017-09-22T05:55:53.454Z,99338.56
2017-09-22T05:58:23.381Z,99333.94
2017-09-22T06:00:56.862Z,99344.42
2017-09-22T06:03:26.517Z,99347.06
2017-09-22T06:05:56.514Z,99349.72
2017-09-22T06:08:26.300Z,99351.13
2017-09-22T06:10:57.726Z,99345.34
2017-09-22T06:13:27.812Z,99353.59
2017-09-22T06:15:59.709Z,99348.50
2017-09-22T06:18:29.150Z,99348.41
2017-09-22T06:21:00.597Z,99353.22
2017-09-22T06:23:30.450Z,99350.16
2017-09-22T06:25:59.686Z,99350.41
2017-09-22T06:28:29.430Z,99352.97
2017-09-22T06:30:59.265Z,99357.19
2017-09-22T06:33:28.943Z,99350.89
2017-09-22T06:35:58.792Z,99356.40
2017-09-22T06:38:28.499Z,99348.27
2017-09-22T06:40:57.680Z,99354.44
2017-09-22T06:43:27.410Z,99352.98
2017-09-22T06:45:56.639Z,99351.29
2017-09-22T06:48:25.818Z,99356.73
2017-09-22T06:50:55.623Z,99359.33
2017-09-22T06:53:24.799Z,99355.36
2017-09-22T06:55:54.162Z,99360.44
2017-09-22T06:58:23.719Z,99360.80
2017-09-22T07:00:54.286Z,99361.11
2017-09-22T07:03:23.510Z,99361.22
2017-09-22T07:05:53.359Z,99368.31
2017-09-22T07:08:24.043Z,99365.02
2017-09-22T07:10:53.447Z,99373.30
2017-09-22T07:13:23.242Z,99374.89
2017-09-22T07:15:52.744Z,99382.39
2017-09-22T07:18:22.791Z,99375.68
2017-09-22T07:20:52.173Z,99377.48
2017-09-22T07:23:23.521Z,99382.38
2017-09-22T07:25:53.123Z,99391.06
2017-09-22T07:28:23.850Z,99392.38
2017-09-22T07:30:53.690Z,99402.00
2017-09-22T07:33:24.435Z,99402.97
2017-09-22T07:35:54.013Z,99405.50
2017-09-22T07:38:24.131Z,99411.63
2017-09-22T07:40:53.407Z,99402.84
2017-09-22T07:43:22.701Z,99401.03
2017-09-22T07:45:52.390Z,99405.08
2017-09-22T07:48:21.818Z,99407.61
2017-09-22T07:50:51.396Z,99405.30
2017-09-22T07:53:21.198Z,99413.00
2017-09-22T07:55:50.846Z,99416.70
2017-09-22T07:58:20.258Z,99413.40
2017-09-22T08:00:49.735Z,99412.15
2017-09-22T08:03:18.920Z,99413.21
2017-09-22T08:05:48.698Z,99413.00
2017-09-22T08:08:18.391Z,99416.92
2017-09-22T08:10:47.759Z,99422.47
2017-09-22T08:13:17.091Z,99421.61
2017-09-22T08:15:46.922Z,99421.94
2017-09-22T08:18:16.246Z,99422.86
2017-09-22T08:20:45.458Z,99426.88
2017-09-22T08:23:15.217Z,99424.80
2017-09-22T08:25:45.814Z,99421.48
2017-09-22T08:28:15.049Z,99422.62
2017-09-22T08:30:45.917Z,99423.98
2017-09-22T08:33:15.488Z,99423.27
2017-09-22T08:35:45.914Z,99420.09
2017-09-22T08:38:16.497Z,99421.58
2017-09-22T08:40:47.154Z,99417.87
2017-09-22T08:43:16.867Z,99422.28
2017-09-22T08:45:46.530Z,99420.20
2017-09-22T08:48:15.723Z,99413.78
2017-09-22T08:50:44.906Z,99413.30
2017-09-22T08:53:14.896Z,99414.67
2017-09-22T08:55:44.162Z,99414.08
2017-09-22T08:58:13.463Z,99415.45
2017-09-22T09:00:43.371Z,99415.45
2017-09-22T09:03:12.543Z,99413.80
2017-09-22T09:05:41.706Z,99414.26
2017-09-22T09:08:11.539Z,99409.32
2017-09-22T09:10:40.767Z,99413.84
2017-09-22T09:13:10.264Z,99406.91
2017-09-22T09:15:39.873Z,99412.17
2017-09-22T09:18:09.044Z,99411.91
2017-09-22T09:20:38.311Z,99414.13
2017-09-22T09:23:07.771Z,99421.42
2017-09-22T09:25:36.918Z,99411.52
2017-09-22T09:28:06.054Z,99405.73
2017-09-22T09:30:36.156Z,99406.59
2017-09-22T09:33:05.306Z,99401.32
2017-09-22T09:35:34.758Z,99405.72
2017-09-22T09:38:06.875Z,99400.03
2017-09-22T09:40:36.264Z,99404.56
2017-09-22T09:43:06.787Z,99405.53
2017-09-22T09:45:36.311Z,99404.27
2017-09-22T09:48:06.714Z,99410.34
2017-09-22T09:50:35.882Z,99413.00
2017-09-22T09:53:06.008Z,99405.59
2017-09-22T09:55:35.185Z,99405.59
2017-09-22T09:58:04.426Z,99402.11
2017-09-22T10:00:34.038Z,99400.03
2017-09-22T10:03:06.598Z,99395.89
2017-09-22T10:05:37.123Z,99398.73
2017-09-22T10:08:10.177Z,99395.61
2017-09-22T10:10:48.897Z,99392.88
2017-09-22T10:17:48.129Z,99386.66
2017-09-22T10:20:17.279Z,99381.80
2017-09-22T10:22:46.926Z,99380.78
2017-09-22T10:25:16.393Z,99379.86
2017-09-22T10:27:45.638Z,99385.63
2017-09-22T10:30:15.087Z,99379.10
2017-09-22T10:32:44.844Z,99372.26
2017-09-22T10:35:14.058Z,99375.64
2017-09-22T10:37:43.235Z,99373.30
2017-09-22T10:40:14.163Z,99373.35
2017-09-22T10:42:43.321Z,99371.25
2017-09-22T10:45:13.012Z,99375.55
2017-09-22T10:47:43.372Z,99370.86
2017-09-22T10:50:12.841Z,99374.02
2017-09-22T10:52:46.436Z,99373.94
2017-09-22T10:55:15.909Z,99378.97
2017-09-22T10:57:45.431Z,99379.03
2017-09-22T11:00:16.763Z,99377.94
2017-09-22T11:02:47.642Z,99375.68
2017-09-22T11:05:18.698Z,99378.14
2017-09-22T11:07:47.850Z,99382.66
2017-09-22T11:10:20.050Z,99378.55
2017-09-22T11:12:49.296Z,99376.14
2017-09-22T11:15:20.141Z,99371.38
2017-09-22T11:17:49.674Z,99380.55
2017-09-22T11:20:18.843Z,99379.36
2017-09-22T11:22:48.154Z,99382.35
2017-09-22T11:25:18.782Z,99382.73
2017-09-22T11:27:48.840Z,99378.28
2017-09-22T11:30:18.063Z,99380.67
2017-09-22T11:32:47.754Z,99375.57
2017-09-22T11:35:27.680Z,99369.09
2017-09-22T11:37:57.202Z,99366.96
2017-09-22T11:40:26.402Z,99368.85
2017-09-22T11:42:55.606Z,99362.32
2017-09-22T11:45:26.651Z,99361.36
2017-09-22T11:47:57.721Z,99359.58
2017-09-22T11:50:27.222Z,99361.63
2017-09-22T11:52:57.840Z,99351.63
2017-09-22T11:55:27.527Z,99358.09
2017-09-22T11:58:05.843Z,99349.06
2017-09-22T12:00:35.137Z,99354.38
2017-09-22T12:03:35.988Z,99352.87
2017-09-22T12:06:07.121Z,99350.55
2017-09-22T12:08:38.047Z,99353.77
2017-09-22T12:11:08.177Z,99348.72
2017-09-22T12:13:38.123Z,99347.58
2017-09-22T12:16:07.862Z,99353.32
2017-09-22T12:18:37.238Z,99355.73
2017-09-22T12:21:06.752Z,99354.39
2017-09-22T12:23:36.471Z,99348.50
2017-09-22T12:26:05.641Z,99359.13
2017-09-22T12:28:35.050Z,99355.72
2017-09-22T12:31:05.352Z,99353.59
2017-09-22T12:33:34.835Z,99351.58
2017-09-22T12:36:04.315Z,99358.00
2017-09-22T12:38:33.506Z,99356.50
2017-09-22T12:41:02.820Z,99352.92
2017-09-22T12:43:35.337Z,99347.56
2017-09-22T12:46:04.754Z,99343.78
2017-09-22T12:48:33.970Z,99346.56
2017-09-22T12:51:03.542Z,99345.39
2017-09-22T12:53:33.986Z,99343.06
2017-09-22T12:56:03.179Z,99341.52
2017-09-22T12:58:33.725Z,99348.08
2017-09-22T13:01:03.213Z,99349.73
2017-09-22T13:03:34.723Z,99347.16
2017-09-22T13:06:04.354Z,99343.39
2017-09-22T13:08:35.152Z,99338.81
2017-09-22T13:11:04.828Z,99337.33
2017-09-22T13:13:36.359Z,99338.88
2017-09-22T13:16:05.563Z,99338.80
2017-09-22T13:18:35.716Z,99338.11
2017-09-22T13:21:08.486Z,99337.97
2017-09-22T13:23:37.686Z,99341.58
2017-09-22T13:26:06.838Z,99342.83
2017-09-22T13:28:36.447Z,99340.03
2017-09-22T13:31:05.827Z,99341.45
2017-09-22T13:33:39.074Z,99346.97
2017-09-22T13:36:09.408Z,99341.56
2017-09-22T13:38:38.912Z,99346.38
2017-09-22T13:41:08.619Z,99343.50
2017-09-22T13:43:38.203Z,99349.77
2017-09-22T13:46:07.454Z,99351.30
2017-09-22T13:48:37.323Z,99350.30
2017-09-22T13:51:06.767Z,99347.09
2017-09-22T13:53:39.319Z,99344.23
2017-09-22T13:56:08.858Z,99346.73
2017-09-22T13:58:38.214Z,99342.02
2017-09-22T14:01:07.463Z,99342.92
2017-09-22T14:03:38.154Z,99350.00
2017-09-22T14:06:07.325Z,99355.44
2017-09-22T14:08:38.277Z,99346.58
2017-09-22T14:11:07.779Z,99347.13
2017-09-22T14:13:39.072Z,99346.39
2017-09-22T14:16:08.337Z,99346.87
2017-09-22T14:18:39.127Z,99347.95
2017-09-22T14:21:08.404Z,99344.39
2017-09-22T14:23:38.925Z,99342.84
2017-09-22T14:26:08.616Z,99342.99
2017-09-22T14:28:39.219Z,99347.89
2017-09-22T14:31:09.600Z,99349.07
2017-09-22T14:33:42.340Z,99346.37
2017-09-22T14:36:11.787Z,99345.97
2017-09-22T14:38:41.054Z,99349.30
2017-09-22T14:41:10.694Z,99350.58
2017-09-22T14:43:40.554Z,99355.93
2017-09-22T14:46:09.844Z,99355.75
2017-09-22T14:48:41.063Z,99359.33
2017-09-22T14:51:10.675Z,99354.02
2017-09-22T14:53:40.878Z,99360.92
2017-09-22T14:56:10.894Z,99362.85
2017-09-22T14:58:41.189Z,99355.30
2017-09-22T15:01:10.466Z,99358.59
2017-09-22T15:03:41.923Z,99360.84
2017-09-22T15:06:11.487Z,99356.16
2017-09-22T15:08:42.566Z,99350.48
2017-09-22T15:11:13.572Z,99350.08
2017-09-22T15:13:42.744Z,99356.73
2017-09-22T15:16:11.931Z,99358.14
2017-09-22T15:18:42.464Z,99358.52
2017-09-22T15:21:11.635Z,99355.66
2017-09-22T15:23:41.952Z,99349.05
2017-09-22T15:26:11.526Z,99355.95
2017-09-22T15:28:42.339Z,99357.72
2017-09-22T15:31:11.738Z,99355.26
2017-09-22T15:33:42.313Z,99356.41
2017-09-22T15:36:11.530Z,99357.98
2017-09-22T15:38:41.763Z,99365.13
2017-09-22T15:41:11.491Z,99371.20
2017-09-22T15:43:41.968Z,99371.89
2017-09-22T15:46:11.135Z,99369.21
2017-09-22T15:48:40.734Z,99368.71
2017-09-22T15:51:09.979Z,99368.85
2017-09-22T15:53:39.920Z,99368.80
2017-09-22T15:56:09.464Z,99369.42
2017-09-22T15:58:38.673Z,99376.26
2017-09-22T16:01:07.978Z,99377.61
2017-09-22T16:03:37.489Z,99377.80
2017-09-22T16:06:06.675Z,99377.85
2017-09-22T16:08:35.867Z,99375.34
2017-09-22T16:11:05.690Z,99373.59
2017-09-22T16:13:34.951Z,99377.02
2017-09-22T16:16:04.255Z,99373.59
2017-09-22T16:18:33.708Z,99376.09
2017-09-22T16:21:02.902Z,99379.22
2017-09-22T16:23:32.090Z,99377.67
2017-09-22T16:26:01.575Z,99381.11
2017-09-22T16:28:30.716Z,99382.75
2017-09-22T16:30:59.939Z,99384.09
2017-09-22T16:33:29.455Z,99381.11
2017-09-22T16:35:58.974Z,99376.64
2017-09-22T16:38:28.168Z,99379.41
2017-09-22T16:40:57.668Z,99381.13
2017-09-22T16:43:26.917Z,99383.17
2017-09-22T16:45:56.152Z,99379.50
2017-09-22T16:48:25.650Z,99377.39
2017-09-22T16:50:54.892Z,99382.72
2017-09-22T16:53:24.038Z,99376.44
2017-09-22T16:55:53.506Z,99379.83
2017-09-22T16:58:23.416Z,99380.72
2017-09-22T17:00:52.920Z,99374.76
2017-09-22T17:03:22.715Z,99386.27
2017-09-22T17:05:52.003Z,99382.20
2017-09-22T17:08:21.407Z,99384.60
2017-09-22T17:10:51.199Z,99388.21
2017-09-22T17:13:20.462Z,99390.44
2017-09-22T17:15:49.976Z,99392.01
2017-09-22T17:18:19.519Z,99397.17
2017-09-22T17:20:49.770Z,99394.34
2017-09-22T17:23:19.248Z,99390.27
2017-09-22T17:25:50.660Z,99393.70
2017-09-22T17:28:19.995Z,99395.56
2017-09-22T17:30:50.515Z,99400.44
2017-09-22T17:33:20.606Z,99408.46
2017-09-22T17:35:50.443Z,99418.52
2017-09-22T17:38:20.955Z,99412.58
2017-09-22T17:40:51.402Z,99413.35
2017-09-22T17:43:20.761Z,99410.94
2017-09-22T17:47:54.777Z,99413.63
2017-09-22T17:51:02.802Z,99419.56
2017-09-22T17:53:35.857Z,99420.91
2017-09-22T17:56:06.883Z,99423.67
2017-09-22T17:58:36.759Z,99424.78
2017-09-22T18:01:06.493Z,99426.91
2017-09-22T18:03:35.950Z,99425.33
2017-09-22T18:06:05.279Z,99433.44
2017-09-22T18:08:35.124Z,99433.95
2017-09-22T18:11:04.768Z,99432.29
2017-09-22T18:13:34.229Z,99433.10
2017-09-22T18:16:04.075Z,99433.52
2017-09-22T18:18:33.400Z,99438.23
2017-09-22T18:21:02.727Z,99433.62
2017-09-22T18:23:32.662Z,99441.33
2017-09-22T18:26:01.979Z,99439.86
2017-09-22T18:28:31.391Z,99441.14
2017-09-22T18:31:00.871Z,99449.21
2017-09-22T18:33:30.054Z,99444.50
2017-09-22T18:35:59.687Z,99450.33
2017-09-22T18:38:29.553Z,99449.37
2017-09-22T18:40:59.091Z,99451.22
2017-09-22T18:43:28.352Z,99442.92
2017-09-22T18:45:58.406Z,99443.52
2017-09-22T18:48:27.690Z,99441.16
2017-09-22T18:50:57.386Z,99440.95
2017-09-22T18:53:27.922Z,99437.56
2017-09-22T18:55:57.312Z,99433.23
2017-09-22T18:58:26.674Z,99436.41
2017-09-22T19:00:56.482Z,99439.86
2017-09-22T19:03:25.721Z,99441.72
2017-09-22T19:05:56.068Z,99447.67
2017-09-22T19:08:25.548Z,99448.64
2017-09-22T19:10:56.591Z,99451.63
2017-09-22T19:13:25.903Z,99459.05
2017-09-22T19:15:56.246Z,99458.67
2017-09-22T19:18:25.450Z,99463.66
2017-09-22T19:20:56.924Z,99472.58
2017-09-22T19:23:26.679Z,99468.65
2017-09-22T19:25:56.554Z,99468.50
2017-09-22T19:28:26.541Z,99466.10
2017-09-22T19:30:56.927Z,99465.11
2017-09-22T19:33:26.111Z,99468.92
2017-09-22T19:35:56.767Z,99466.93
2017-09-22T19:38:26.260Z,99470.67
2017-09-22T19:40:57.858Z,99465.91
2017-09-22T19:43:27.151Z,99478.64
2017-09-22T19:45:58.058Z,99473.34
2017-09-22T19:48:27.451Z,99476.64
2017-09-22T19:50:57.735Z,99470.38
2017-09-22T19:53:27.247Z,99477.05
2017-09-22T19:55:57.530Z,99481.44
2017-09-22T19:58:26.831Z,99477.68
2017-09-22T20:00:59.623Z,99478.39
2017-09-22T20:03:28.858Z,99481.16
2017-09-22T20:05:58.142Z,99488.54
2017-09-22T20:08:27.696Z,99493.51
2017-09-22T20:10:58.710Z,99495.34
2017-09-22T20:13:28.017Z,99489.64
2017-09-22T20:15:58.431Z,99495.48
2017-09-22T20:18:27.911Z,99485.67
2017-09-22T20:20:59.251Z,99490.98
2017-09-22T20:23:28.835Z,99486.73
2017-09-22T20:25:58.857Z,99488.22
2017-09-22T20:28:28.166Z,99495.88
2017-09-22T20:30:59.066Z,99494.76
2017-09-22T20:33:28.387Z,99494.41
2017-09-22T20:35:59.234Z,99504.43
2017-09-22T20:38:28.807Z,99506.78
2017-09-22T20:40:59.647Z,99503.83
2017-09-22T20:43:29.051Z,99506.57
2017-09-22T20:46:00.202Z,99503.55
2017-09-22T20:48:29.466Z,99501.30
2017-09-22T20:51:00.348Z,99498.52
2017-09-22T20:53:29.867Z,99497.03
2017-09-22T20:56:00.117Z,99497.17
2017-09-22T20:58:29.370Z,99493.81
2017-09-22T21:01:00.684Z,99499.69
2017-09-22T21:03:29.942Z,99497.64
2017-09-22T21:06:00.895Z,99492.34
2017-09-22T21:08:31.885Z,99493.56
2017-09-22T21:11:01.111Z,99494.04
2017-09-22T21:13:31.407Z,99494.86
2017-09-22T21:16:01.063Z,99496.36
2017-09-22T21:18:30.755Z,99496.09
2017-09-22T21:21:02.622Z,99494.50
2017-09-22T21:23:32.639Z,99498.98
2017-09-22T21:26:02.134Z,99500.89
2017-09-22T21:28:31.370Z,99506.43
2017-09-22T21:31:02.291Z,99509.32
2017-09-22T21:33:31.542Z,99512.13
2017-09-22T21:36:02.698Z,99512.41
2017-09-22T21:38:32.222Z,99511.14
2017-09-22T21:41:02.756Z,99513.95
2017-09-22T21:43:31.990Z,99509.45
2017-09-22T21:46:03.362Z,99514.02
2017-09-22T21:48:32.878Z,99512.41
2017-09-22T21:51:02.904Z,99515.77
2017-09-22T21:53:32.650Z,99506.36
2017-09-22T21:56:04.838Z,99509.88
2017-09-22T21:58:34.142Z,99518.09
2017-09-22T22:01:03.933Z,99522.31
2017-09-22T22:03:37.357Z,99526.16
2017-09-22T22:06:11.019Z,99534.75
2017-09-22T22:08:44.575Z,99529.43
2017-09-22T22:11:14.535Z,99527.97
2017-09-22T22:13:44.091Z,99527.08
2017-09-22T22:16:13.446Z,99525.55
2017-09-22T22:18:42.607Z,99530.88
2017-09-22T22:21:12.018Z,99534.75
2017-09-22T22:23:41.318Z,99535.63
2017-09-22T22:26:10.746Z,99532.55
2017-09-22T22:28:40.299Z,99534.08
2017-09-22T22:31:09.498Z,99532.77
2017-09-22T22:33:38.918Z,99530.63
2017-09-22T22:36:17.316Z,99531.42
2017-09-22T22:38:46.595Z,99528.80
2017-09-22T22:41:16.387Z,99535.54
2017-09-22T22:43:45.639Z,99530.80
2017-09-22T22:46:15.108Z,99533.59
2017-09-22T22:48:44.606Z,99536.81
2017-09-22T22:51:13.756Z,99532.39
2017-09-22T22:53:43.277Z,99530.38
2017-09-22T22:56:12.736Z,99536.75
2017-09-22T22:58:41.905Z,99542.09
2017-09-22T23:01:11.125Z,99546.23
2017-09-22T23:03:40.966Z,99551.16
2017-09-22T23:06:10.666Z,99547.23
2017-09-22T23:08:39.830Z,99545.58
2017-09-22T23:11:09.423Z,99553.22
2017-09-22T23:13:38.635Z,99550.36
2017-09-22T23:16:07.853Z,99550.78
2017-09-22T23:18:37.360Z,99544.31
2017-09-22T23:21:07.951Z,99547.77
2017-09-22T23:23:37.170Z,99546.11
2017-09-22T23:26:08.354Z,99543.35
2017-09-22T23:28:38.047Z,99539.36
2017-09-22T23:31:12.317Z,99545.01
2017-09-22T23:33:41.819Z,99543.38
2017-09-22T23:36:11.103Z,99546.89
2017-09-22T23:38:40.314Z,99556.66
2017-09-22T23:41:10.234Z,99550.44
2017-09-22T23:43:39.401Z,99557.14
2017-09-22T23:46:08.651Z,99547.45
2017-09-22T23:48:38.486Z,99550.67
2017-09-22T23:51:09.077Z,99556.26
2017-09-22T23:53:38.799Z,99554.97
2017-09-22T23:56:09.448Z,99557.52
2017-09-22T23:58:39.010Z,99555.62
